createdAt,value
2018-09-29T00:00:29.337Z,8.00
2018-09-29T00:02:57.992Z,7.90
2018-09-29T00:05:26.862Z,7.90
2018-09-29T00:07:55.592Z,7.80
2018-09-29T00:10:24.248Z,7.80
2018-09-29T00:12:53.070Z,7.80
2018-09-29T00:15:21.795Z,7.70
2018-09-29T00:17:50.501Z,7.80
2018-09-29T00:20:19.296Z,7.70
2018-09-29T00:22:47.926Z,7.70
2018-09-29T00:25:16.793Z,7.80
2018-09-29T00:27:45.399Z,7.80
2018-09-29T00:30:14.208Z,8.00
2018-09-29T00:32:43.299Z,8.00
2018-09-29T00:35:12.037Z,8.00
2018-09-29T00:37:40.627Z,8.00
2018-09-29T00:40:09.735Z,8.10
2018-09-29T00:42:38.405Z,8.20
2018-09-29T00:45:07.097Z,8.20
2018-09-29T00:47:35.952Z,8.10
2018-09-29T00:50:04.630Z,8.20
2018-09-29T00:52:33.466Z,8.20
2018-09-29T00:55:02.244Z,8.30
2018-09-29T00:57:31.100Z,8.20
2018-09-29T00:59:59.777Z,8.20
2018-09-29T01:02:28.568Z,8.30
2018-09-29T01:04:57.260Z,8.30
2018-09-29T01:07:26.082Z,8.30
2018-09-29T01:09:54.735Z,8.30
2018-09-29T01:12:23.570Z,8.20
2018-09-29T01:14:52.143Z,8.20
2018-09-29T01:17:20.866Z,8.30
2018-09-29T01:19:49.501Z,8.30
2018-09-29T01:22:18.237Z,8.40
2018-09-29T01:24:46.931Z,8.40
2018-09-29T01:27:15.565Z,8.40
2018-09-29T01:29:44.263Z,8.50
2018-09-29T01:32:12.887Z,8.50
2018-09-29T01:34:41.507Z,8.40
2018-09-29T01:37:10.256Z,8.40
2018-09-29T01:39:38.997Z,8.30
2018-09-29T01:42:07.604Z,8.40
2018-09-29T01:44:36.346Z,8.40
2018-09-29T01:47:05.210Z,8.50
2018-09-29T01:49:33.993Z,8.40
2018-09-29T01:52:02.724Z,8.50
2018-09-29T01:54:31.396Z,8.60
2018-09-29T01:57:00.033Z,8.60
2018-09-29T01:59:28.628Z,8.60
2018-09-29T02:01:57.418Z,8.60
2018-09-29T02:04:26.297Z,8.60
2018-09-29T02:06:54.925Z,8.60
2018-09-29T02:09:23.595Z,8.60
2018-09-29T02:11:52.260Z,8.50
2018-09-29T02:14:21.170Z,8.40
2018-09-29T02:16:49.814Z,8.40
2018-09-29T02:19:18.614Z,8.40
2018-09-29T02:21:47.245Z,8.40
2018-09-29T02:24:15.967Z,8.40
2018-09-29T02:26:44.803Z,8.30
2018-09-29T02:29:13.645Z,8.30
2018-09-29T02:31:42.450Z,8.20
2018-09-29T02:34:11.110Z,8.30
2018-09-29T02:36:39.774Z,8.30
2018-09-29T02:39:10.666Z,8.30
2018-09-29T02:41:39.550Z,8.30
2018-09-29T02:44:08.664Z,8.30
2018-09-29T02:46:37.427Z,8.20
2018-09-29T02:49:06.416Z,8.20
2018-09-29T02:51:35.328Z,8.20
2018-09-29T02:54:03.974Z,8.20
2018-09-29T02:56:32.624Z,8.20
2018-09-29T02:59:01.301Z,8.30
2018-09-29T03:01:29.912Z,8.20
2018-09-29T03:03:58.744Z,8.30
2018-09-29T03:06:27.394Z,8.10
2018-09-29T03:08:56.184Z,8.10
2018-09-29T03:11:24.847Z,8.20
2018-09-29T03:13:53.589Z,8.20
2018-09-29T03:16:22.254Z,8.20
2018-09-29T03:18:51.060Z,8.20
2018-09-29T03:21:19.698Z,8.30
2018-09-29T03:23:48.324Z,8.20
2018-09-29T03:26:16.965Z,8.30
2018-09-29T03:28:45.606Z,8.30
2018-09-29T03:31:14.309Z,8.30
2018-09-29T03:33:42.935Z,8.30
2018-09-29T03:36:11.680Z,8.30
2018-09-29T03:38:40.300Z,8.30
2018-09-29T03:41:09.312Z,8.30
2018-09-29T03:43:37.954Z,8.20
2018-09-29T03:46:06.735Z,8.10
2018-09-29T03:48:35.361Z,8.00
2018-09-29T03:51:04.235Z,8.00
2018-09-29T03:53:33.043Z,8.00
2018-09-29T03:56:01.896Z,8.00
2018-09-29T03:58:30.738Z,8.00
2018-09-29T04:00:59.393Z,8.00
2018-09-29T04:03:28.235Z,8.00
2018-09-29T04:05:56.865Z,8.10
2018-09-29T04:08:25.539Z,8.00
2018-09-29T04:10:54.253Z,8.00
2018-09-29T04:13:23.094Z,7.90
2018-09-29T04:15:51.937Z,8.00
2018-09-29T04:18:20.607Z,8.00
2018-09-29T04:20:49.258Z,8.00
2018-09-29T04:23:17.899Z,7.90
2018-09-29T04:25:46.548Z,7.80
2018-09-29T04:28:15.244Z,7.80
2018-09-29T04:30:43.868Z,7.80
2018-09-29T04:33:12.715Z,7.80
2018-09-29T04:35:41.516Z,7.80
2018-09-29T04:38:10.063Z,7.80
2018-09-29T04:40:38.692Z,7.80
2018-09-29T04:43:07.450Z,7.70
2018-09-29T04:45:36.184Z,7.70
2018-09-29T04:48:04.807Z,7.60
2018-09-29T04:50:33.511Z,7.60
2018-09-29T04:53:02.144Z,7.60
2018-09-29T04:55:30.830Z,7.60
2018-09-29T04:58:00.005Z,7.50
2018-09-29T05:00:30.619Z,7.50
2018-09-29T05:02:59.543Z,7.30
2018-09-29T05:05:28.179Z,7.40
2018-09-29T05:07:56.803Z,7.40
2018-09-29T05:10:25.427Z,7.40
2018-09-29T05:12:54.063Z,7.30
2018-09-29T05:15:22.968Z,7.20
2018-09-29T05:17:51.784Z,7.20
2018-09-29T05:20:20.428Z,7.20
2018-09-29T05:22:49.120Z,7.10
2018-09-29T05:25:17.828Z,7.10
2018-09-29T05:27:46.598Z,7.10
2018-09-29T05:30:15.255Z,7.20
2018-09-29T05:32:43.913Z,7.20
2018-09-29T05:35:12.559Z,7.10
2018-09-29T05:37:41.209Z,6.90
2018-09-29T05:40:09.873Z,6.90
2018-09-29T05:42:38.543Z,7.00
2018-09-29T05:45:07.224Z,6.90
2018-09-29T05:47:35.867Z,6.80
2018-09-29T05:50:04.562Z,6.80
2018-09-29T05:52:33.210Z,6.80
2018-09-29T05:55:02.206Z,6.90
2018-09-29T05:57:31.074Z,6.90
2018-09-29T05:59:59.914Z,6.90
2018-09-29T06:02:28.766Z,6.90
2018-09-29T06:04:57.424Z,6.90
2018-09-29T06:07:26.097Z,6.90
2018-09-29T06:09:54.887Z,6.90
2018-09-29T06:12:23.522Z,6.80
2018-09-29T06:14:52.159Z,6.90
2018-09-29T06:17:20.856Z,6.90
2018-09-29T06:19:49.508Z,7.00
2018-09-29T06:22:18.167Z,7.00
2018-09-29T06:24:46.875Z,7.00
2018-09-29T06:27:15.566Z,7.00
2018-09-29T06:29:44.881Z,7.00
2018-09-29T06:32:13.538Z,7.00
2018-09-29T06:34:43.161Z,7.10
2018-09-29T06:37:11.840Z,7.10
2018-09-29T06:39:40.470Z,7.10
2018-09-29T06:42:09.984Z,7.20
2018-09-29T06:44:38.760Z,7.30
2018-09-29T06:47:07.479Z,7.30
2018-09-29T06:49:36.119Z,7.30
2018-09-29T06:52:04.931Z,7.30
2018-09-29T06:54:33.839Z,7.40
2018-09-29T06:57:02.532Z,7.50
2018-09-29T06:59:31.208Z,7.50
2018-09-29T07:01:59.834Z,7.50
2018-09-29T07:04:28.589Z,7.50
2018-09-29T07:06:57.431Z,7.60
2018-09-29T07:09:26.101Z,7.60
2018-09-29T07:11:55.067Z,7.70
2018-09-29T07:14:24.013Z,7.70
2018-09-29T07:16:52.853Z,7.80
2018-09-29T07:19:21.539Z,7.80
2018-09-29T07:21:50.322Z,7.80
2018-09-29T07:24:19.067Z,7.90
2018-09-29T07:26:47.943Z,8.00
2018-09-29T07:29:18.159Z,8.00
2018-09-29T07:31:46.789Z,8.10
2018-09-29T07:34:15.598Z,8.10
2018-09-29T07:36:44.274Z,8.20
2018-09-29T07:39:13.206Z,8.30
2018-09-29T07:41:42.316Z,8.40
2018-09-29T07:44:12.181Z,8.40
2018-09-29T07:46:40.870Z,8.50
2018-09-29T07:49:09.740Z,8.50
2018-09-29T07:51:38.414Z,8.60
2018-09-29T07:54:07.156Z,8.70
2018-09-29T07:56:35.862Z,8.80
2018-09-29T07:59:04.692Z,8.90
2018-09-29T08:01:33.407Z,9.00
2018-09-29T08:04:02.093Z,9.10
2018-09-29T08:06:30.787Z,9.20
2018-09-29T08:08:59.455Z,9.30
2018-09-29T08:11:28.116Z,9.40
2018-09-29T08:13:57.119Z,9.50
2018-09-29T08:16:25.837Z,9.60
2018-09-29T08:19:01.077Z,9.60
2018-09-29T08:21:29.843Z,9.70
2018-09-29T08:23:58.535Z,9.80
2018-09-29T08:26:27.493Z,9.80
2018-09-29T08:28:56.151Z,10.00
2018-09-29T08:31:24.837Z,10.10
2018-09-29T08:33:53.701Z,10.20
2018-09-29T08:36:22.435Z,10.30
2018-09-29T08:38:51.504Z,10.40
2018-09-29T08:41:20.372Z,10.50
2018-09-29T08:43:49.410Z,10.60
2018-09-29T08:46:18.564Z,10.70
2018-09-29T08:48:47.349Z,10.70
2018-09-29T08:51:16.420Z,10.90
2018-09-29T08:53:45.349Z,11.00
2018-09-29T08:56:14.197Z,11.10
2018-09-29T08:58:43.335Z,11.20
2018-09-29T09:01:12.179Z,11.30
2018-09-29T09:03:40.863Z,11.40
2018-09-29T09:06:16.123Z,11.50
2018-09-29T09:08:44.962Z,11.50
2018-09-29T09:11:13.805Z,11.60
2018-09-29T09:13:42.617Z,11.70
2018-09-29T09:16:11.397Z,11.70
2018-09-29T09:18:40.041Z,11.80
2018-09-29T09:21:08.714Z,11.80
2018-09-29T09:23:37.433Z,11.90
2018-09-29T09:26:06.544Z,11.90
2018-09-29T09:28:35.489Z,11.90
2018-09-29T09:31:04.572Z,12.00
2018-09-29T09:33:33.652Z,12.10
2018-09-29T09:36:02.621Z,12.10
2018-09-29T09:38:31.308Z,12.10
2018-09-29T09:41:00.036Z,12.20
2018-09-29T09:43:28.872Z,12.30
2018-09-29T09:45:57.574Z,12.40
2018-09-29T09:48:26.318Z,12.40
2018-09-29T09:50:55.002Z,12.40
2018-09-29T09:53:23.661Z,12.50
2018-09-29T09:55:52.384Z,12.50
2018-09-29T09:58:21.235Z,12.50
2018-09-29T10:00:55.189Z,12.50
2018-09-29T10:03:28.475Z,12.60
2018-09-29T10:05:57.611Z,12.60
2018-09-29T10:08:26.960Z,12.60
2018-09-29T10:10:55.633Z,12.70
2018-09-29T10:13:24.401Z,12.80
2018-09-29T10:15:53.383Z,12.90
2018-09-29T10:18:22.078Z,12.90
2018-09-29T10:20:50.909Z,13.00
2018-09-29T10:23:19.630Z,13.00
2018-09-29T10:25:48.299Z,13.00
2018-09-29T10:28:17.038Z,13.10
2018-09-29T10:30:45.716Z,13.10
2018-09-29T10:33:14.528Z,13.20
2018-09-29T10:35:43.482Z,13.20
2018-09-29T10:38:12.246Z,13.30
2018-09-29T10:40:40.904Z,13.40
2018-09-29T10:43:09.726Z,13.40
2018-09-29T10:45:38.392Z,13.40
2018-09-29T10:48:07.155Z,13.40
2018-09-29T10:50:35.809Z,13.30
2018-09-29T10:53:04.554Z,13.40
2018-09-29T10:55:33.167Z,13.50
2018-09-29T10:58:01.902Z,13.50
2018-09-29T11:00:30.621Z,13.60
2018-09-29T11:02:59.851Z,13.60
2018-09-29T11:05:28.741Z,13.70
2018-09-29T11:07:57.665Z,13.70
2018-09-29T11:10:26.443Z,13.60
2018-09-29T11:12:55.238Z,13.60
2018-09-29T11:15:24.085Z,13.60
2018-09-29T11:17:52.748Z,13.50
2018-09-29T11:20:21.410Z,13.50
2018-09-29T11:22:50.030Z,13.50
2018-09-29T11:25:18.640Z,13.50
2018-09-29T11:27:47.357Z,13.50
2018-09-29T11:30:16.040Z,13.50
2018-09-29T11:32:45.050Z,13.60
2018-09-29T11:35:14.098Z,13.70
2018-09-29T11:37:42.816Z,13.90
2018-09-29T11:40:11.738Z,14.20
2018-09-29T11:42:40.392Z,14.20
2018-09-29T11:45:09.055Z,14.60
2018-09-29T11:47:37.811Z,15.00
2018-09-29T11:50:06.887Z,15.30
2018-09-29T11:52:35.701Z,15.20
2018-09-29T11:55:04.439Z,15.30
2018-09-29T11:57:33.210Z,15.10
2018-09-29T12:00:02.101Z,15.40
2018-09-29T12:02:30.955Z,15.70
2018-09-29T12:04:59.670Z,16.00
2018-09-29T12:07:28.366Z,16.00
2018-09-29T12:09:57.081Z,16.30
2018-09-29T12:12:25.769Z,16.20
2018-09-29T12:14:54.562Z,16.30
2018-09-29T12:17:23.202Z,16.00
2018-09-29T12:19:51.966Z,15.70
2018-09-29T12:22:20.696Z,15.60
2018-09-29T12:24:49.337Z,15.40
2018-09-29T12:27:18.090Z,15.40
2018-09-29T12:29:46.945Z,15.30
2018-09-29T12:32:15.628Z,15.60
2018-09-29T12:34:44.344Z,16.30
2018-09-29T12:37:13.459Z,16.60
2018-09-29T12:39:42.108Z,16.70
2018-09-29T12:42:11.027Z,17.00
2018-09-29T12:44:39.796Z,16.80
2018-09-29T12:47:08.438Z,16.70
2018-09-29T12:49:37.217Z,17.20
2018-09-29T12:52:06.327Z,18.10
2018-09-29T12:54:35.043Z,18.80
2018-09-29T12:57:03.744Z,19.20
2018-09-29T12:59:32.410Z,19.80
2018-09-29T13:02:01.370Z,20.20
2018-09-29T13:04:30.047Z,20.60
2018-09-29T13:06:58.885Z,21.00
2018-09-29T13:09:27.612Z,20.90
2018-09-29T13:11:56.336Z,20.70
2018-09-29T13:14:25.255Z,21.20
2018-09-29T13:16:53.951Z,21.40
2018-09-29T13:19:22.747Z,21.70
2018-09-29T13:21:51.386Z,21.50
2018-09-29T13:24:20.226Z,21.10
2018-09-29T13:26:48.887Z,21.20
2018-09-29T13:29:17.731Z,21.50
2018-09-29T13:31:46.592Z,21.80
2018-09-29T13:34:15.429Z,21.90
2018-09-29T13:36:44.105Z,21.60
2018-09-29T13:39:12.830Z,21.80
2018-09-29T13:41:41.703Z,21.50
2018-09-29T13:44:10.401Z,21.30
2018-09-29T13:46:39.096Z,21.60
2018-09-29T13:49:07.794Z,21.10
2018-09-29T13:51:36.701Z,20.40
2018-09-29T13:54:05.420Z,19.60
2018-09-29T13:56:34.210Z,19.00
2018-09-29T13:59:02.855Z,18.60
2018-09-29T14:01:31.666Z,18.20
2018-09-29T14:04:00.301Z,17.90
2018-09-29T14:06:29.200Z,17.80
2018-09-29T14:08:57.892Z,17.70
2018-09-29T14:11:26.542Z,17.50
2018-09-29T14:13:55.396Z,17.50
2018-09-29T14:16:24.078Z,17.30
2018-09-29T14:18:52.784Z,17.20
2018-09-29T14:21:21.548Z,17.30
2018-09-29T14:23:50.219Z,17.30
2018-09-29T14:26:18.900Z,17.20
2018-09-29T14:28:47.586Z,17.30
2018-09-29T14:31:16.232Z,17.20
2018-09-29T14:33:44.860Z,17.10
2018-09-29T14:36:13.529Z,17.00
2018-09-29T14:38:42.443Z,17.40
2018-09-29T14:41:11.465Z,17.80
2018-09-29T14:43:40.259Z,18.10
2018-09-29T14:46:09.117Z,18.40
2018-09-29T14:48:37.782Z,18.40
2018-09-29T14:51:06.573Z,18.10
2018-09-29T14:53:35.564Z,18.00
2018-09-29T14:56:04.216Z,18.10
2018-09-29T14:58:32.958Z,18.20
2018-09-29T15:01:01.625Z,18.30
2018-09-29T15:03:30.516Z,18.40
2018-09-29T15:05:59.252Z,18.40
2018-09-29T15:08:27.931Z,18.30
2018-09-29T15:10:56.917Z,18.40
2018-09-29T15:13:25.827Z,18.20
2018-09-29T15:15:54.551Z,17.80
2018-09-29T15:18:23.307Z,17.90
2018-09-29T15:20:52.071Z,18.10
2018-09-29T15:23:20.881Z,18.20
2018-09-29T15:25:49.611Z,18.40
2018-09-29T15:28:18.426Z,18.50
2018-09-29T15:30:47.046Z,18.60
2018-09-29T15:33:15.714Z,18.50
2018-09-29T15:35:44.377Z,18.50
2018-09-29T15:38:13.388Z,18.70
2018-09-29T15:40:42.072Z,18.70
2018-09-29T15:43:11.079Z,18.80
2018-09-29T15:45:39.856Z,18.40
2018-09-29T15:48:08.545Z,18.10
2018-09-29T15:50:37.550Z,17.90
2018-09-29T15:53:06.303Z,18.00
2018-09-29T15:55:35.014Z,18.10
2018-09-29T15:58:03.902Z,18.10
2018-09-29T16:00:32.672Z,18.20
2018-09-29T16:03:01.942Z,18.20
2018-09-29T16:05:30.818Z,17.90
2018-09-29T16:07:59.753Z,17.70
2018-09-29T16:10:28.459Z,17.70
2018-09-29T16:12:57.225Z,17.50
2018-09-29T16:15:26.260Z,17.40
2018-09-29T16:17:55.177Z,17.20
2018-09-29T16:20:23.906Z,17.00
2018-09-29T16:22:52.763Z,16.90
2018-09-29T16:25:21.477Z,16.70
2018-09-29T16:27:50.178Z,16.50
2018-09-29T16:30:18.898Z,16.50
2018-09-29T16:32:47.561Z,16.50
2018-09-29T16:35:16.298Z,16.40
2018-09-29T16:37:45.450Z,16.30
2018-09-29T16:40:14.301Z,16.30
2018-09-29T16:42:43.106Z,16.10
2018-09-29T16:45:11.852Z,15.90
2018-09-29T16:47:40.658Z,15.90
2018-09-29T16:50:09.361Z,15.80
2018-09-29T16:52:38.009Z,15.80
2018-09-29T16:55:06.967Z,15.60
2018-09-29T16:57:35.611Z,15.60
2018-09-29T17:00:04.768Z,15.60
2018-09-29T17:02:33.732Z,15.50
2018-09-29T17:05:02.446Z,15.50
2018-09-29T17:07:31.202Z,15.40
2018-09-29T17:10:00.061Z,15.30
2018-09-29T17:12:28.773Z,15.30
2018-09-29T17:14:57.464Z,15.20
2018-09-29T17:17:26.226Z,15.20
2018-09-29T17:19:55.022Z,15.00
2018-09-29T17:22:23.779Z,15.00
2018-09-29T17:24:52.486Z,15.00
2018-09-29T17:27:21.194Z,14.90
2018-09-29T17:29:50.013Z,15.00
2018-09-29T17:32:19.261Z,14.90
2018-09-29T17:34:48.051Z,14.90
2018-09-29T17:37:16.961Z,15.00
2018-09-29T17:39:47.757Z,14.80
2018-09-29T17:42:16.502Z,14.80
2018-09-29T17:44:45.862Z,14.80
2018-09-29T17:47:14.545Z,14.60
2018-09-29T17:49:43.174Z,14.40
2018-09-29T17:52:11.914Z,14.40
2018-09-29T17:54:40.700Z,14.20
2018-09-29T17:57:09.474Z,14.00
2018-09-29T17:59:38.445Z,13.90
2018-09-29T18:02:07.392Z,13.80
2018-09-29T18:04:36.124Z,13.70
2018-09-29T18:07:04.844Z,13.60
2018-09-29T18:09:33.734Z,13.60
2018-09-29T18:12:02.420Z,13.50
2018-09-29T18:14:31.290Z,13.40
2018-09-29T18:16:59.996Z,13.40
2018-09-29T18:19:28.934Z,13.20
2018-09-29T18:21:58.219Z,13.10
2018-09-29T18:24:26.870Z,13.10
2018-09-29T18:26:55.704Z,13.00
2018-09-29T18:29:24.557Z,12.90
2018-09-29T18:31:53.217Z,12.90
2018-09-29T18:34:22.023Z,12.80
2018-09-29T18:36:50.938Z,12.80
2018-09-29T18:39:19.591Z,12.70
2018-09-29T18:41:48.477Z,12.60
2018-09-29T18:44:17.454Z,12.60
2018-09-29T18:46:46.306Z,12.50
2018-09-29T18:49:15.937Z,12.50
2018-09-29T18:51:44.691Z,12.40
2018-09-29T18:54:13.373Z,12.40
2018-09-29T18:56:42.262Z,12.40
2018-09-29T18:59:10.991Z,12.30
2018-09-29T19:01:39.687Z,12.20
2018-09-29T19:04:08.369Z,12.10
2018-09-29T19:06:37.292Z,12.00
2018-09-29T19:09:10.208Z,12.00
2018-09-29T19:11:38.860Z,11.90
2018-09-29T19:14:07.569Z,11.90
2018-09-29T19:16:36.383Z,11.80
2018-09-29T19:19:05.162Z,11.70
2018-09-29T19:21:33.838Z,11.70
2018-09-29T19:24:02.481Z,11.70
2018-09-29T19:26:31.385Z,11.60
2018-09-29T19:28:59.995Z,11.60
2018-09-29T19:31:28.849Z,11.60
2018-09-29T19:33:57.546Z,11.60
2018-09-29T19:36:26.220Z,11.60
2018-09-29T19:38:55.514Z,11.40
2018-09-29T19:41:24.388Z,11.40
2018-09-29T19:43:53.274Z,11.30
2018-09-29T19:46:22.010Z,11.20
2018-09-29T19:48:50.903Z,11.20
2018-09-29T19:51:19.649Z,11.20
2018-09-29T19:53:48.266Z,11.20
2018-09-29T19:56:16.998Z,11.20
2018-09-29T19:58:45.817Z,11.20
2018-09-29T20:01:14.709Z,11.10
2018-09-29T20:03:43.649Z,11.10
2018-09-29T20:06:12.342Z,11.00
2018-09-29T20:08:41.245Z,10.90
2018-09-29T20:11:09.935Z,10.90
2018-09-29T20:13:38.665Z,11.00
2018-09-29T20:16:07.522Z,10.90
2018-09-29T20:18:36.203Z,10.80
2018-09-29T20:21:05.133Z,10.70
2018-09-29T20:23:33.907Z,10.70
2018-09-29T20:26:02.689Z,10.70
2018-09-29T20:28:31.416Z,10.60
2018-09-29T20:31:00.129Z,10.60
2018-09-29T20:33:30.890Z,10.50
2018-09-29T20:35:59.672Z,10.50
2018-09-29T20:38:28.661Z,10.40
2018-09-29T20:40:57.335Z,10.40
2018-09-29T20:43:26.266Z,10.40
2018-09-29T20:45:54.958Z,10.40
2018-09-29T20:48:23.706Z,10.40
2018-09-29T20:50:52.859Z,10.30
2018-09-29T20:53:21.570Z,10.20
2018-09-29T20:55:50.413Z,10.10
2018-09-29T20:58:19.222Z,10.10
2018-09-29T21:00:48.136Z,10.10
2018-09-29T21:03:16.781Z,10.00
2018-09-29T21:05:45.693Z,10.00
2018-09-29T21:08:14.399Z,9.90
2018-09-29T21:10:43.043Z,9.90
2018-09-29T21:13:11.847Z,9.80
2018-09-29T21:15:40.450Z,9.80
2018-09-29T21:18:09.487Z,9.80
2018-09-29T21:20:38.128Z,9.80
2018-09-29T21:23:06.781Z,9.80
2018-09-29T21:25:35.429Z,9.80
2018-09-29T21:28:04.262Z,9.80
2018-09-29T21:30:32.993Z,9.80
2018-09-29T21:33:01.676Z,9.80
2018-09-29T21:35:31.050Z,9.80
2018-09-29T21:37:59.890Z,9.70
2018-09-29T21:40:28.536Z,9.60
2018-09-29T21:42:57.262Z,9.60
2018-09-29T21:45:26.183Z,9.60
2018-09-29T21:47:54.874Z,9.50
2018-09-29T21:50:23.534Z,9.50
2018-09-29T21:52:52.190Z,9.40
2018-09-29T21:55:20.826Z,9.40
2018-09-29T21:57:49.486Z,9.40
2018-09-29T22:00:23.924Z,9.40
2018-09-29T22:02:52.581Z,9.40
2018-09-29T22:05:21.365Z,9.40
2018-09-29T22:07:50.221Z,9.30
2018-09-29T22:10:18.891Z,9.20
2018-09-29T22:12:47.587Z,9.20
2018-09-29T22:15:16.272Z,9.20
2018-09-29T22:17:45.113Z,9.10
2018-09-29T22:20:13.814Z,9.20
2018-09-29T22:22:42.474Z,9.20
2018-09-29T22:25:11.696Z,9.30
2018-09-29T22:27:40.503Z,9.30
2018-09-29T22:30:09.184Z,9.10
2018-09-29T22:32:37.836Z,9.10
2018-09-29T22:35:06.558Z,9.20
2018-09-29T22:37:35.174Z,9.20
2018-09-29T22:40:03.900Z,9.30
2018-09-29T22:42:32.895Z,9.20
2018-09-29T22:45:01.688Z,9.20
2018-09-29T22:47:30.364Z,9.20
2018-09-29T22:49:59.021Z,9.20
2018-09-29T22:52:27.663Z,9.00
2018-09-29T22:54:56.319Z,8.90
2018-09-29T22:57:25.408Z,8.80
2018-09-29T22:59:54.123Z,8.80
2018-09-29T23:02:22.764Z,8.80
2018-09-29T23:04:51.463Z,8.80
2018-09-29T23:07:20.070Z,8.80
2018-09-29T23:09:48.693Z,8.90
2018-09-29T23:12:17.739Z,8.90
2018-09-29T23:14:46.396Z,8.90
2018-09-29T23:17:15.204Z,8.80
2018-09-29T23:19:44.058Z,8.80
2018-09-29T23:22:13.010Z,8.70
2018-09-29T23:24:41.809Z,8.70
2018-09-29T23:27:10.646Z,8.60
2018-09-29T23:29:39.248Z,8.50
2018-09-29T23:32:07.914Z,8.50
2018-09-29T23:34:36.805Z,8.40
2018-09-29T23:37:05.490Z,8.30
2018-09-29T23:39:34.197Z,8.20
2018-09-29T23:42:02.831Z,8.30
2018-09-29T23:44:31.479Z,8.40
2018-09-29T23:47:00.173Z,8.40
2018-09-29T23:49:28.813Z,8.50
2018-09-29T23:51:57.542Z,8.50
2018-09-29T23:54:26.235Z,8.50
2018-09-29T23:56:55.105Z,8.40
2018-09-29T23:59:23.777Z,8.40
